Time;durP1;ratioP1;P1;durP2;ratioP2;P2;SDS_P1;SDS_P2;PMS_P1;PMS_P2;Temp;Humidity;BMP_temperature;BMP_pressure;BME280_temperature;BME280_humidity;BME280_pressure;Samples;Min_cycle;Max_cycle;Signal;HPM_P1;HPM_P2
2022/10/04 00:05:07;;;;;;;2.05;1.10;;;;;;;19.47;47.54;102300.72;16129569;19;129292;-65
2022/10/04 00:10:32;;;;;;;1.38;0.80;;;;;;;19.45;47.94;102302.84;16128053;19;130251;-65
2022/10/04 00:15:54;;;;;;;3.13;0.90;;;;;;;19.44;47.91;102295.63;16129417;19;128977;-62
2022/10/04 00:21:16;;;;;;;3.35;0.82;;;;;;;19.42;47.78;102290.28;16126821;19;130028;-62
2022/10/04 00:26:38;;;;;;;2.30;0.73;;;;;;;19.42;47.62;102283.88;16126130;19;131030;-62
2022/10/04 00:32:11;;;;;;;1.92;0.98;;;;;;;19.43;47.50;102285.59;16130141;19;129397;-62
2022/10/04 00:37:56;;;;;;;1.10;0.60;;;;;;;19.40;47.95;102255.50;16130589;19;129605;-61
2022/10/04 00:43:27;;;;;;;2.55;0.68;;;;;;;19.38;47.43;102252.94;16127631;19;129955;-62
2022/10/04 00:49:08;;;;;;;1.08;0.52;;;;;;;19.38;47.71;102258.50;16128400;19;129847;-62
2022/10/04 00:54:33;;;;;;;1.50;0.65;;;;;;;19.35;47.62;102250.59;16128648;19;129447;-62
2022/10/04 01:00:18;;;;;;;1.00;0.60;;;;;;;19.33;47.81;102245.25;16128388;19;129390;-62
2022/10/04 01:05:52;;;;;;;1.98;0.70;;;;;;;19.31;47.86;102241.88;16126709;19;129691;-62
2022/10/04 01:11:30;;;;;;;1.35;0.50;;;;;;;19.30;47.60;102236.53;16125483;19;129761;-62
2022/10/04 01:16:52;;;;;;;1.20;0.80;;;;;;;19.25;47.68;102226.09;16125854;19;130807;-61
2022/10/04 01:22:32;;;;;;;0.70;0.55;;;;;;;19.24;47.71;102229.94;16124186;19;129398;-62
2022/10/04 01:27:53;;;;;;;5.55;0.75;;;;;;;19.21;47.92;102225.69;16123408;19;129870;-61
2022/10/04 01:33:15;;;;;;;1.00;0.60;;;;;;;19.23;47.70;102214.34;16121609;19;129970;-62
2022/10/04 01:38:37;;;;;;;0.70;0.60;;;;;;;19.20;47.47;102212.84;16122125;19;133013;-62
2022/10/04 01:44:03;;;;;;;1.42;0.63;;;;;;;19.19;47.55;102211.13;16121362;19;129391;-61
2022/10/04 01:49:31;;;;;;;1.00;0.60;;;;;;;19.19;47.45;102204.75;16121016;19;129439;-61
2022/10/04 01:55:04;;;;;;;0.65;0.40;;;;;;;19.18;47.80;102203.88;16122810;19;131514;-62
2022/10/04 02:00:27;;;;;;;1.10;0.70;;;;;;;19.16;47.31;102202.41;16120098;19;130056;-61
2022/10/04 02:05:55;;;;;;;1.40;0.50;;;;;;;19.15;47.54;102198.75;16120573;19;130172;-60
2022/10/04 02:11:20;;;;;;;0.77;0.52;;;;;;;19.14;47.34;102193.44;16118946;19;129600;-61
2022/10/04 02:16:51;;;;;;;1.40;0.60;;;;;;;19.14;47.59;102190.69;16121278;19;129684;-61
2022/10/04 02:22:13;;;;;;;0.95;0.65;;;;;;;19.12;47.48;102182.59;16120690;19;132166;-61
2022/10/04 02:27:35;;;;;;;2.45;0.43;;;;;;;19.10;47.66;102168.06;16119784;19;129443;-61
2022/10/04 02:32:58;;;;;;;0.70;0.60;;;;;;;19.11;47.59;102169.78;16121455;19;129638;-61
2022/10/04 02:38:22;;;;;;;0.93;0.60;;;;;;;19.09;47.44;102155.28;16118863;19;130043;-62
2022/10/04 02:43:48;;;;;;;0.70;0.50;;;;;;;19.09;47.28;102146.97;16131052;19;130849;-61
2022/10/04 02:49:28;;;;;;;0.75;0.55;;;;;;;19.08;47.40;102126.66;16134510;19;129658;-62
2022/10/04 02:55:01;;;;;;;0.40;0.40;;;;;;;19.08;47.70;102115.56;16135882;19;129782;-62
2022/10/04 03:00:30;;;;;;;0.63;0.43;;;;;;;19.09;47.22;102108.13;16128539;19;130825;-61
2022/10/04 03:05:52;;;;;;;1.27;0.60;;;;;;;19.06;47.69;102101.09;16131962;19;134013;-62
2022/10/04 03:11:17;;;;;;;0.25;0.25;;;;;;;19.04;47.76;102097.69;16131965;19;129821;-62
2022/10/04 03:16:42;;;;;;;1.30;0.60;;;;;;;19.04;47.56;102092.16;16130061;19;129720;-63
2022/10/04 03:22:11;;;;;;;0.70;0.30;;;;;;;19.05;47.49;102087.44;16129642;19;129441;-62
2022/10/04 03:27:35;;;;;;;0.65;0.40;;;;;;;19.03;47.33;102068.25;16132465;19;131135;-61
2022/10/04 03:32:58;;;;;;;0.38;0.32;;;;;;;19.03;47.75;102061.84;16132291;19;129539;-62
2022/10/04 03:38:22;;;;;;;0.60;0.40;;;;;;;19.03;47.30;102065.47;16131499;19;129124;-62
2022/10/04 03:43:48;;;;;;;2.38;0.52;;;;;;;19.02;47.34;102061.00;16131388;19;130060;-62
2022/10/04 03:49:13;;;;;;;0.85;0.50;;;;;;;19.00;47.39;102063.16;16130544;19;129627;-62
2022/10/04 03:54:35;;;;;;;0.70;0.50;;;;;;;19.00;47.20;102045.66;16129153;19;130206;-61
2022/10/04 03:59:58;;;;;;;0.30;0.30;;;;;;;18.99;47.45;102046.75;16130436;19;129676;-62
2022/10/04 04:05:59;;;;;;;0.70;0.50;;;;;;;19.00;47.13;102063.16;16127020;19;129574;-62
2022/10/04 04:11:26;;;;;;;0.65;0.40;;;;;;;18.99;47.52;102055.06;16125829;19;129720;-62
2022/10/04 04:16:48;;;;;;;0.45;0.40;;;;;;;18.98;47.59;102059.72;16131334;19;129643;-62
2022/10/04 04:22:15;;;;;;;0.50;0.43;;;;;;;18.98;47.40;102056.13;16127169;19;129611;-62
2022/10/04 04:27:39;;;;;;;0.52;0.40;;;;;;;18.95;47.16;102057.44;16130645;19;130352;-61
2022/10/04 04:33:09;;;;;;;1.00;0.30;;;;;;;18.96;47.16;102038.84;16128765;19;129623;-62
2022/10/04 04:38:31;;;;;;;0.80;0.50;;;;;;;18.96;47.15;102036.06;16128904;19;129915;-62
2022/10/04 04:43:54;;;;;;;0.80;0.50;;;;;;;18.94;47.35;102035.44;16126404;19;130189;-62
2022/10/04 04:49:17;;;;;;;0.70;0.50;;;;;;;18.93;47.41;102017.97;16126969;19;129641;-61
2022/10/04 04:54:39;;;;;;;1.52;0.50;;;;;;;18.94;47.13;102021.59;16124698;19;130110;-74
2022/10/04 05:00:01;;;;;;;0.20;0.20;;;;;;;18.94;47.19;102016.91;16124688;19;129656;-70
2022/10/04 05:05:24;;;;;;;0.95;0.60;;;;;;;18.94;47.51;102007.72;16122183;19;129575;-62
2022/10/04 05:11:10;;;;;;;0.32;0.32;;;;;;;18.93;47.54;102017.97;16125505;19;129630;-62
2022/10/04 05:16:58;;;;;;;0.57;0.40;;;;;;;18.93;47.04;102015.19;16124648;19;132655;-62
2022/10/04 05:22:23;;;;;;;1.10;0.55;;;;;;;18.93;47.43;102017.97;16122853;19;129697;-62
2022/10/04 05:27:45;;;;;;;0.73;0.38;;;;;;;18.92;47.21;102027.34;16124218;19;129689;-66
2022/10/04 05:33:10;;;;;;;1.00;0.70;;;;;;;18.95;47.26;102020.50;16126122;19;129290;-65
2022/10/04 05:39:03;;;;;;;1.30;0.52;;;;;;;18.94;47.24;102014.13;16122178;19;134543;-66
2022/10/04 05:44:34;;;;;;;3.42;0.60;;;;;;;18.91;46.98;102011.78;16120440;19;131068;-62
2022/10/04 05:49:57;;;;;;;3.78;0.77;;;;;;;;;;16121293;19;129453;-60
2022/10/04 05:55:31;;;;;;;6.70;0.80;;;;;;;18.94;47.00;102032.66;16119437;19;129222;-61
2022/10/04 06:01:30;;;;;;;2.58;1.00;;;;;;;18.93;46.84;102037.38;16121604;19;130272;-62
2022/10/04 06:07:01;;;;;;;4.03;0.80;;;;;;;18.90;47.27;102035.03;16122021;19;133334;-61
2022/10/04 06:12:56;;;;;;;2.15;0.60;;;;;;;18.90;47.20;102037.81;16121918;19;130498;-61
2022/10/04 06:18:53;;;;;;;1.60;0.60;;;;;;;18.90;47.06;102040.59;16117652;19;129736;-61
2022/10/04 06:24:24;;;;;;;3.25;0.60;;;;;;;18.92;46.98;102044.00;16108947;19;129629;-61
2022/10/04 06:30:03;;;;;;;2.10;0.60;;;;;;;18.95;46.72;102038.03;16112229;19;129972;-61
2022/10/04 06:35:51;;;;;;;2.45;0.68;;;;;;;19.00;47.07;102037.34;16110290;19;129476;-61
2022/10/04 06:41:40;;;;;;;1.17;0.50;;;;;;;19.04;46.84;102033.03;16106956;19;130923;-60
2022/10/04 06:47:33;;;;;;;4.03;0.70;;;;;;;19.03;46.75;102028.56;16110493;19;130297;-60
2022/10/04 06:53:15;;;;;;;3.28;0.95;;;;;;;19.02;46.94;102043.50;16109838;19;129679;-59
2022/10/04 06:59:16;;;;;;;1.05;0.50;;;;;;;19.04;46.50;102038.59;16116657;19;133697;-59
2022/10/04 07:04:50;;;;;;;2.35;0.55;;;;;;;19.08;46.87;102037.06;16118670;19;133223;-59
2022/10/04 07:10:44;;;;;;;1.40;0.57;;;;;;;19.17;46.37;102041.28;16115806;19;129352;-59
2022/10/04 07:16:44;;;;;;;2.83;0.52;;;;;;;19.31;46.25;102046.78;16114768;19;129130;-59
2022/10/04 07:22:05;;;;;;;0.60;0.40;;;;;;;19.98;45.38;102027.66;16115415;19;129956;-59
2022/10/04 07:27:33;;;;;;;2.00;0.40;;;;;;;22.38;41.40;102029.16;16114044;19;131900;-59
2022/10/04 07:32:57;;;;;;;2.30;0.45;;;;;;;24.51;37.89;102028.13;16133971;19;129763;-58
2022/10/04 07:38:26;;;;;;;1.17;0.30;;;;;;;25.71;35.41;102045.97;16130369;19;129692;-58
2022/10/04 07:43:56;;;;;;;0.30;0.30;;;;;;;26.74;33.52;102033.63;16133133;19;129806;-58
2022/10/04 07:49:20;;;;;;;0.77;0.30;;;;;;;27.56;32.17;102035.78;16130405;19;129813;-58
2022/10/04 07:54:51;;;;;;;0.82;0.30;;;;;;;28.21;31.00;102030.38;16133669;19;129759;-58
2022/10/04 08:00:27;;;;;;;0.98;0.40;;;;;;;28.64;30.13;102026.31;16131067;19;130009;-58
2022/10/04 08:05:57;;;;;;;0.95;0.40;;;;;;;28.18;30.48;102008.47;16133177;19;129236;-58
2022/10/04 08:11:37;;;;;;;0.32;0.25;;;;;;;26.19;33.02;102011.53;16130045;19;129403;-59
2022/10/04 08:17:32;;;;;;;0.95;0.30;;;;;;;24.52;35.09;102013.03;16130141;19;129473;-58
2022/10/04 08:23:00;;;;;;;2.45;0.50;;;;;;;23.32;37.18;102007.56;16130223;19;129225;-59
2022/10/04 08:35:24;;;;;;;1.42;0.55;;;;;;;21.89;40.06;102025.78;16128617;19;131343;-57
2022/10/04 08:41:15;;;;;;;1.80;0.70;;;;;;;21.45;41.06;102026.88;16118864;19;130110;-57
2022/10/04 08:46:42;;;;;;;1.00;0.60;;;;;;;21.12;41.19;102019.91;16119993;19;129695;-57
2022/10/04 08:52:04;;;;;;;1.65;0.75;;;;;;;20.89;42.14;102021.53;16116992;19;129458;-58
2022/10/04 08:57:47;;;;;;;0.68;0.60;;;;;;;20.75;42.68;102018.06;16117683;19;129674;-58
2022/10/04 09:03:43;;;;;;;1.10;0.60;;;;;;;20.60;43.06;102015.66;16116022;19;129942;-57
2022/10/04 09:09:43;;;;;;;1.00;0.70;;;;;;;20.48;43.01;102025.03;16118566;19;129702;-58
2022/10/04 09:15:36;;;;;;;0.55;0.40;;;;;;;20.37;43.31;102033.03;16119899;19;129763;-58
2022/10/04 09:21:19;;;;;;;2.35;0.90;;;;;;;20.32;43.80;102018.13;16124667;19;130776;-59
2022/10/04 09:26:54;;;;;;;5.20;1.40;;;;;;;20.24;43.42;102019.31;16123007;19;129368;-58
2022/10/04 09:32:39;;;;;;;4.88;1.40;;;;;;;20.19;43.94;102011.66;16128044;19;129485;-58
2022/10/04 09:38:22;;;;;;;2.65;1.10;;;;;;;20.14;44.05;102011.50;16123465;19;129911;-58
2022/10/04 09:43:44;;;;;;;4.45;1.35;;;;;;;20.08;44.12;102007.72;16123471;19;129592;-58
2022/10/04 09:49:53;;;;;;;2.60;1.27;;;;;;;20.06;43.64;102000.69;16122028;19;129411;-59
2022/10/04 09:55:33;;;;;;;3.15;1.10;;;;;;;20.02;43.96;101999.44;16118820;19;130442;-58
2022/10/04 10:01:00;;;;;;;3.00;1.20;;;;;;;19.95;44.32;101986.44;16117683;19;129916;-58
2022/10/04 10:06:43;;;;;;;3.65;1.00;;;;;;;19.95;44.37;101986.44;16120617;19;129645;-58
2022/10/04 10:18:35;;;;;;;3.72;1.30;;;;;;;19.87;44.14;101972.84;16118733;19;129653;-58
2022/10/04 10:24:43;;;;;;;1.75;1.10;;;;;;;19.82;44.53;101975.47;16122725;19;134678;-59
2022/10/04 10:30:23;;;;;;;2.53;1.23;;;;;;;19.78;44.27;101990.91;16120106;19;130073;-58
2022/10/04 10:35:51;;;;;;;3.47;1.33;;;;;;;19.74;44.61;101979.41;16119807;19;129435;-58
2022/10/04 10:41:34;;;;;;;3.70;1.00;;;;;;;19.74;44.80;101978.53;16117153;19;130819;-58
2022/10/04 10:47:11;;;;;;;2.50;1.00;;;;;;;19.71;44.69;101992.88;16120332;19;130142;-59
2022/10/04 10:52:44;;;;;;;2.38;0.80;;;;;;;19.69;44.61;101982.84;16116456;19;133747;-59
2022/10/04 10:58:18;;;;;;;3.05;1.02;;;;;;;19.66;45.05;101980.53;16117283;19;129430;-59
2022/10/04 11:03:52;;;;;;;4.05;0.98;;;;;;;19.64;44.87;101968.81;16124277;19;129708;-59
2022/10/04 11:09:29;;;;;;;3.45;0.88;;;;;;;19.64;45.20;101956.84;16131435;19;130162;-58
2022/10/04 11:14:53;;;;;;;1.98;0.98;;;;;;;19.59;44.94;101943.66;16129635;19;129789;-58
2022/10/04 11:20:15;;;;;;;1.63;0.73;;;;;;;19.58;44.78;101953.06;16133220;19;129702;-59
2022/10/04 11:26:05;;;;;;;2.30;0.80;;;;;;;19.59;45.05;101949.19;16132934;19;129711;-59
2022/10/04 11:31:54;;;;;;;2.10;0.88;;;;;;;19.58;45.40;101941.13;16130851;19;129302;-59
2022/10/04 11:37:34;;;;;;;3.78;1.17;;;;;;;19.56;45.22;101935.81;16132992;19;129664;-59
2022/10/04 11:43:08;;;;;;;2.40;0.80;;;;;;;19.55;45.22;101914.69;16128962;19;129679;-56
2022/10/04 11:48:48;;;;;;;1.13;0.68;;;;;;;19.55;45.52;101924.91;16130448;19;129214;-59
2022/10/04 11:54:29;;;;;;;1.80;0.80;;;;;;;19.56;45.35;101927.47;16126945;19;129509;-59
2022/10/04 12:00:10;;;;;;;2.58;0.85;;;;;;;19.57;45.19;101931.09;16130192;19;129215;-59
2022/10/04 12:06:02;;;;;;;2.28;0.80;;;;;;;19.57;45.48;101917.22;16133705;19;130174;-59
2022/10/04 12:12:35;;;;;;;1.75;0.82;;;;;;;19.53;45.23;101920.44;16129327;19;130841;-59
2022/10/04 12:17:20;;;;;;;1.85;0.70;;;;;;;19.55;45.63;101916.59;16128299;19;128911;-59
2022/10/04 12:22:59;;;;;;;2.03;0.60;;;;;;;19.54;45.45;101921.28;16123094;19;129745;-59
2022/10/04 12:28:58;;;;;;;1.90;0.82;;;;;;;19.52;45.74;101909.56;16120159;19;130109;-60
2022/10/04 12:34:52;;;;;;;2.22;0.75;;;;;;;19.51;45.60;101905.09;16114874;19;131768;-58
2022/10/04 12:40:19;;;;;;;3.03;1.02;;;;;;;19.48;45.52;101898.09;16111123;19;131194;-58
2022/10/04 12:46:10;;;;;;;1.85;1.00;;;;;;;19.47;45.63;101885.28;16121241;19;131090;-58
2022/10/04 12:51:45;;;;;;;2.85;1.35;;;;;;;19.50;45.46;101881.19;16126711;19;130087;-58
2022/10/04 12:57:19;;;;;;;1.92;1.00;;;;;;;19.49;45.19;101893.38;16126250;19;129793;-58
2022/10/04 13:03:01;;;;;;;3.40;0.80;;;;;;;19.48;45.17;101881.44;16127547;19;129892;-58
2022/10/04 13:08:42;;;;;;;1.95;1.13;;;;;;;19.50;45.53;101867.31;16125986;19;129620;-58
2022/10/04 13:14:07;;;;;;;2.70;1.17;;;;;;;19.47;45.54;101862.22;16124968;19;129378;-58
2022/10/04 13:19:55;;;;;;;1.75;0.90;;;;;;;19.47;45.09;101857.53;16127344;19;129481;-58
2022/10/04 13:25:29;;;;;;;2.33;0.95;;;;;;;19.48;45.25;101852.81;16123452;19;129801;-58
2022/10/04 13:31:07;;;;;;;2.10;1.00;;;;;;;19.47;45.28;101859.44;16125532;19;129129;-58
2022/10/04 13:36:53;;;;;;;3.78;1.10;;;;;;;19.45;45.31;101862.47;16116514;19;130913;-58
2022/10/04 13:42:58;;;;;;;2.05;0.80;;;;;;;19.46;45.38;101846.63;16121293;19;129708;-58
2022/10/04 13:48:29;;;;;;;1.73;1.15;;;;;;;19.44;45.59;101849.66;16124140;19;129522;-58
2022/10/04 14:00:27;;;;;;;1.67;0.95;;;;;;;19.46;45.41;101821.66;16111688;19;129567;-58
2022/10/04 14:06:11;;;;;;;2.78;1.00;;;;;;;19.43;45.15;101824.94;16112744;19;129679;-59
2022/10/04 14:11:42;;;;;;;1.48;1.00;;;;;;;19.41;45.29;101808.47;16113218;19;130920;-58
2022/10/04 14:17:22;;;;;;;3.42;1.02;;;;;;;19.42;45.36;101799.09;16112870;19;130099;-58
2022/10/04 14:22:52;;;;;;;2.50;1.23;;;;;;;19.42;45.19;101795.47;16112065;19;129676;-58
2022/10/04 14:28:36;;;;;;;1.92;0.80;;;;;;;19.42;45.48;101793.53;16112016;19;129634;-58
2022/10/04 14:34:14;;;;;;;2.53;0.90;;;;;;;19.43;45.46;101788.84;16113436;19;130732;-58
2022/10/04 14:40:00;;;;;;;4.35;1.17;;;;;;;19.43;45.75;101784.13;16131815;19;129152;-58
2022/10/04 14:46:01;;;;;;;3.17;0.98;;;;;;;19.44;45.63;101771.13;16136597;19;129428;-58
2022/10/04 14:51:44;;;;;;;1.70;1.00;;;;;;;19.43;45.65;101766.66;16124581;19;129581;-58
2022/10/04 14:57:19;;;;;;;2.20;1.13;;;;;;;19.43;45.23;101777.75;16127107;19;130305;-58
2022/10/04 15:03:13;;;;;;;2.17;1.05;;;;;;;19.44;45.75;101785.00;16126635;19;129728;-59
2022/10/04 15:08:56;;;;;;;1.92;0.63;;;;;;;19.43;45.26;101794.41;16123764;19;129985;-57
2022/10/04 15:14:25;;;;;;;1.67;0.82;;;;;;;19.41;45.38;101788.22;16120433;19;131220;-58
2022/10/04 15:20:21;;;;;;;3.17;0.93;;;;;;;19.37;45.52;101791.44;16120915;19;129951;-58
2022/10/04 15:25:46;;;;;;;4.65;1.40;;;;;;;19.40;45.36;101789.31;16127682;19;130485;-59
2022/10/04 15:31:19;;;;;;;5.28;1.80;;;;;;;19.42;45.34;101787.97;16131946;19;129490;-59
2022/10/04 15:36:50;;;;;;;6.30;2.00;;;;;;;19.43;44.85;101789.69;16129208;19;129442;-58
2022/10/04 15:42:28;;;;;;;6.00;2.08;;;;;;;19.43;44.94;101773.03;16131302;19;129518;-59
2022/10/04 15:48:09;;;;;;;5.43;2.10;;;;;;;19.44;45.19;101777.50;16129702;19;130024;-59
2022/10/04 15:54:17;;;;;;;9.63;1.83;;;;;;;19.45;45.08;101781.13;16131059;19;129470;-59
2022/10/04 15:59:41;;;;;;;6.57;1.70;;;;;;;19.45;45.41;101781.13;16130042;19;129425;-59
2022/10/04 16:05:16;;;;;;;4.93;1.80;;;;;;;19.47;45.16;101778.97;16128745;19;129575;-59
2022/10/04 16:11:13;;;;;;;4.32;2.05;;;;;;;19.47;45.45;101765.09;16131357;19;130437;-59
2022/10/04 16:16:38;;;;;;;11.85;2.47;;;;;;;19.45;45.60;101772.78;16130843;19;130218;-57
2022/10/04 16:22:30;;;;;;;8.18;2.35;;;;;;;19.45;45.68;101770.00;16125370;19;129955;-58
2022/10/04 16:27:57;;;;;;;4.25;1.70;;;;;;;19.41;45.66;101766.84;16125932;19;129572;-58
2022/10/04 16:33:32;;;;;;;5.25;1.67;;;;;;;19.40;45.72;101780.97;16127670;19;129820;-57
2022/10/04 16:44:49;;;;;;;10.15;2.10;;;;;;;19.36;46.03;101806.41;16128027;19;129646;-58
2022/10/04 16:50:11;;;;;;;5.05;2.30;;;;;;;19.32;45.58;101810.72;16127796;19;130058;-58
2022/10/04 16:55:52;;;;;;;4.80;2.22;;;;;;;19.33;46.09;101820.72;16127098;19;129148;-58
2022/10/04 17:01:32;;;;;;;7.97;3.00;;;;;;;19.32;45.92;101827.34;16125014;19;129397;-58
2022/10/04 17:07:12;;;;;;;5.80;2.75;;;;;;;19.30;46.03;101828.66;16125279;19;130647;-58
2022/10/04 17:12:45;;;;;;;6.78;3.03;;;;;;;19.28;46.09;101828.91;16125518;19;129578;-58
2022/10/04 17:18:29;;;;;;;8.00;3.58;;;;;;;19.28;46.11;101830.81;16123502;19;129688;-57
2022/10/04 17:24:02;;;;;;;10.65;3.90;;;;;;;19.25;46.40;101832.13;16125225;19;129379;-58
2022/10/04 17:29:35;;;;;;;10.38;3.50;;;;;;;19.24;46.17;101841.53;16125236;19;129825;-58
2022/10/04 17:35:21;;;;;;;7.88;3.80;;;;;;;19.24;46.18;101841.53;16123816;19;129635;-58
2022/10/04 17:41:04;;;;;;;12.10;3.70;;;;;;;19.22;46.55;101850.09;16123092;19;129460;-58
2022/10/04 17:46:32;;;;;;;9.50;4.03;;;;;;;19.21;46.20;101853.06;16120206;19;130818;-58
2022/10/04 17:57:46;;;;;;;11.85;5.05;;;;;;;19.21;46.56;101866.94;16119832;19;129374;-58
2022/10/04 18:03:17;;;;;;;14.05;4.90;;;;;;;19.20;46.46;101852.22;16121577;19;130546;-58
2022/10/04 18:08:54;;;;;;;13.27;4.60;;;;;;;19.20;47.06;101859.69;16122528;19;129590;-61
2022/10/04 18:14:57;;;;;;;17.17;5.55;;;;;;;19.21;47.29;101836.44;16121089;19;129181;-56
2022/10/04 18:20:27;;;;;;;18.77;5.53;;;;;;;19.27;47.27;101832.75;16121350;19;130741;-58
2022/10/04 18:25:54;;;;;;;16.25;5.43;;;;;;;19.32;47.49;101812.66;16121544;19;130226;-55
2022/10/04 18:31:26;;;;;;;16.50;5.68;;;;;;;19.44;47.38;101812.75;16120155;19;130495;-57
2022/10/04 18:37:17;;;;;;;18.13;5.45;;;;;;;19.72;47.18;101803.00;16118309;19;130814;-57
2022/10/04 18:42:41;;;;;;;18.40;5.15;;;;;;;20.07;46.88;101802.38;16119897;19;130156;-58
2022/10/04 18:48:14;;;;;;;20.23;5.27;;;;;;;20.33;46.65;101800.28;16118486;19;129409;-58
2022/10/04 18:53:45;;;;;;;11.68;4.07;;;;;;;20.47;46.41;101804.56;16121175;19;130131;-58
2022/10/04 19:05:29;;;;;;;14.10;4.50;;;;;;;20.52;46.41;101817.75;16117822;19;131308;-58
2022/10/04 19:10:58;;;;;;;14.48;4.00;;;;;;;20.46;46.29;101822.31;16113944;19;129547;-57
2022/10/04 19:16:39;;;;;;;16.13;4.13;;;;;;;20.43;46.45;101826.44;16116844;19;129599;-58
2022/10/04 19:22:22;;;;;;;15.07;4.10;;;;;;;20.37;46.61;101824.59;16117453;19;130020;-57
2022/10/04 19:28:08;;;;;;;10.57;4.00;;;;;;;20.32;47.09;101812.50;16131331;19;129558;-58
2022/10/04 19:33:40;;;;;;;9.80;3.90;;;;;;;20.24;47.11;101803.41;16132457;19;129853;-58
2022/10/04 19:39:18;;;;;;;10.88;4.22;;;;;;;20.22;47.05;101813.09;16128495;19;130089;-57
2022/10/04 19:44:50;;;;;;;18.58;4.40;;;;;;;20.17;47.29;101805.47;16126210;19;129546;-59
2022/10/04 19:50:21;;;;;;;8.15;3.58;;;;;;;20.10;47.60;101796.34;16128063;19;132905;-53
2022/10/04 19:55:56;;;;;;;19.20;4.10;;;;;;;20.06;47.77;101809.03;16126686;19;129850;-53
2022/10/04 20:01:21;;;;;;;12.35;4.13;;;;;;;20.04;47.61;101802.84;16125708;19;129694;-56
2022/10/04 20:06:48;;;;;;;12.55;3.80;;;;;;;20.03;47.62;101793.66;16127115;19;131437;-59
2022/10/04 20:12:40;;;;;;;9.13;3.42;;;;;;;20.01;47.83;101790.25;16125287;19;129570;-54
2022/10/04 20:18:30;;;;;;;14.80;3.95;;;;;;;19.98;47.97;101794.34;16126564;19;129422;-54
2022/10/04 20:23:55;;;;;;;10.70;3.47;;;;;;;19.94;47.75;101792.28;16126559;19;130855;-56
2022/10/04 20:29:35;;;;;;;12.73;3.33;;;;;;;19.94;47.83;101790.31;16125193;19;129969;-51
2022/10/04 20:34:58;;;;;;;10.25;3.13;;;;;;;19.93;47.89;101788.66;16122297;19;130807;-56
2022/10/04 20:40:22;;;;;;;12.10;3.38;;;;;;;19.92;48.06;101798.06;16122818;19;129845;-60
2022/10/04 20:45:45;;;;;;;10.27;3.20;;;;;;;19.89;48.15;101795.75;16128688;19;129428;-59
2022/10/04 20:51:11;;;;;;;11.63;3.10;;;;;;;19.87;47.82;101783.19;16130022;19;129656;-60
2022/10/04 20:56:32;;;;;;;7.05;2.60;;;;;;;19.83;47.91;101791.13;16126181;19;133980;-59
2022/10/04 21:02:04;;;;;;;6.93;3.08;;;;;;;19.83;47.62;101788.34;16128854;19;129472;-59
2022/10/04 21:07:26;;;;;;;10.00;3.22;;;;;;;19.80;47.65;101791.59;16125037;19;129313;-58
2022/10/04 21:12:48;;;;;;;6.05;2.55;;;;;;;19.78;47.48;101785.44;16128245;19;129241;-60
2022/10/04 21:18:10;;;;;;;9.38;2.88;;;;;;;19.76;47.85;101801.47;16125900;19;129921;-59
2022/10/04 21:23:34;;;;;;;5.90;2.58;;;;;;;19.76;47.59;101787.59;16126715;19;129496;-59
2022/10/04 21:28:57;;;;;;;7.38;2.15;;;;;;;19.78;47.46;101791.00;16127457;19;129868;-62
2022/10/04 21:34:19;;;;;;;6.80;2.70;;;;;;;19.78;47.58;101786.25;16124061;19;129438;-59
2022/10/04 21:40:01;;;;;;;3.58;2.17;;;;;;;19.80;48.03;101805.50;16124914;19;130038;-59
2022/10/04 21:45:24;;;;;;;6.22;2.40;;;;;;;19.79;47.71;101793.53;16123332;19;129457;-57
2022/10/04 21:50:46;;;;;;;5.38;2.30;;;;;;;19.77;47.95;101795.69;16122028;19;130883;-58
2022/10/04 21:56:08;;;;;;;5.25;1.90;;;;;;;19.77;48.01;101790.13;16118197;19;129148;-51
2022/10/04 22:01:30;;;;;;;7.63;2.13;;;;;;;19.78;47.82;101793.75;16122136;19;130066;-59
2022/10/04 22:06:51;;;;;;;8.02;1.83;;;;;;;19.78;47.71;101796.53;16118360;19;129771;-59
2022/10/04 22:12:13;;;;;;;3.35;1.48;;;;;;;19.79;47.61;101792.69;16123816;19;129708;-59
2022/10/04 22:17:35;;;;;;;3.15;1.85;;;;;;;19.78;47.45;101796.53;16129030;19;130439;-60
2022/10/04 22:22:57;;;;;;;4.10;1.73;;;;;;;19.78;47.46;101791.00;16122901;19;129319;-60
2022/10/04 22:28:24;;;;;;;2.47;1.67;;;;;;;19.77;47.21;101778.19;16120600;19;129258;-60
2022/10/04 22:33:48;;;;;;;5.03;1.50;;;;;;;19.75;47.33;101778.44;16118761;19;129961;-60
2022/10/04 22:39:16;;;;;;;6.45;1.52;;;;;;;19.75;47.74;101772.88;16116173;19;129521;-60
2022/10/04 22:44:39;;;;;;;1.48;1.38;;;;;;;19.73;47.54;101771.38;16115343;19;129733;-59
2022/10/04 22:50:01;;;;;;;4.47;1.42;;;;;;;19.71;47.26;101759.66;16118814;19;129411;-60
2022/10/04 22:55:22;;;;;;;2.47;1.30;;;;;;;19.68;47.42;101761.84;16118339;19;131161;-60
2022/10/04 23:00:44;;;;;;;3.85;1.67;;;;;;;19.67;47.64;101740.72;16132884;19;131270;-59
2022/10/04 23:06:11;;;;;;;3.05;1.30;;;;;;;19.66;47.20;101738.16;16135118;19;129451;-59
2022/10/04 23:11:33;;;;;;;1.38;0.95;;;;;;;19.66;47.45;101727.91;16136378;19;129551;-59
2022/10/04 23:16:54;;;;;;;2.97;1.40;;;;;;;19.64;47.37;101735.63;16137949;19;130177;-60
2022/10/04 23:22:21;;;;;;;1.75;1.10;;;;;;;19.64;47.35;101741.19;16135944;19;129304;-60
2022/10/04 23:27:44;;;;;;;3.35;0.95;;;;;;;19.62;47.36;101732.25;16134854;19;129983;-60
2022/10/04 23:33:18;;;;;;;1.25;0.90;;;;;;;19.63;47.34;101731.16;16133601;19;129813;-59
2022/10/04 23:38:48;;;;;;;1.92;1.10;;;;;;;19.61;47.61;101719.44;16136870;19;129577;-60
2022/10/04 23:44:12;;;;;;;1.65;1.10;;;;;;;19.60;47.63;101736.34;16135456;19;129399;-60
2022/10/04 23:49:34;;;;;;;1.58;1.00;;;;;;;19.58;47.50;101736.56;16134662;19;129594;-59
2022/10/04 23:54:56;;;;;;;1.65;0.90;;;;;;;19.57;47.54;101723.75;16130846;19;129887;-60
